Alafaya, Florida
Current Conditions -  °F | °C
As of 4:50 PM on Tuesday 21 Oct 2014 (Local Time) from KTIX Reporting Station
Broken Clouds Broken Clouds  
Wind Chill: 81°   Ceiling: 10000
Heat Index: 84°   Visibility: 7mi
Dew Point: 70°   Wind: 6mph
Humidity: 70%   Direction: NA
Pressure: 29.91"   Gusts: NA
Location:  28.4078°N, 81.0314°W
Report Text: KTIX 212050Z VRB05KT 7SM SCT034 BKN100 27/21 A2991
Loading
Personal Weather Stations






























Interactive Weather Map
Tropical Storm Tracking
New forecast layout! Learn more

10-Day Weather Forecast

Advertisements
Track Severe Weather on mobile